sensor_id;sensor_type;location;lat;lon;timestamp;P1;durP1;ratioP1;P2;durP2;ratioP2
74124;SDS011;62475;52.192;5.396;2023-05-21T00:00:04;4.13;;;2.80;;
74124;SDS011;62475;52.192;5.396;2023-05-21T00:03:30;4.70;;;2.90;;
74124;SDS011;62475;52.192;5.396;2023-05-21T00:06:56;4.63;;;3.08;;
74124;SDS011;62475;52.192;5.396;2023-05-21T00:10:20;4.22;;;2.92;;
74124;SDS011;62475;52.192;5.396;2023-05-21T00:13:43;7.72;;;3.42;;
74124;SDS011;62475;52.192;5.396;2023-05-21T00:17:07;4.03;;;2.70;;
74124;SDS011;62475;52.192;5.396;2023-05-21T00:20:31;5.22;;;3.47;;
74124;SDS011;62475;52.192;5.396;2023-05-21T00:23:55;5.10;;;3.45;;
74124;SDS011;62475;52.192;5.396;2023-05-21T00:27:19;4.80;;;3.22;;
74124;SDS011;62475;52.192;5.396;2023-05-21T00:30:43;5.30;;;3.03;;
74124;SDS011;62475;52.192;5.396;2023-05-21T00:34:06;4.95;;;2.95;;
74124;SDS011;62475;52.192;5.396;2023-05-21T00:37:31;4.97;;;4.07;;
74124;SDS011;62475;52.192;5.396;2023-05-21T00:40:56;5.25;;;3.47;;
74124;SDS011;62475;52.192;5.396;2023-05-21T00:44:22;5.65;;;3.38;;
74124;SDS011;62475;52.192;5.396;2023-05-21T00:47:48;4.07;;;3.45;;
74124;SDS011;62475;52.192;5.396;2023-05-21T00:51:13;4.68;;;3.30;;
74124;SDS011;62475;52.192;5.396;2023-05-21T00:54:37;4.95;;;3.28;;
74124;SDS011;62475;52.192;5.396;2023-05-21T00:58:01;5.80;;;3.30;;
74124;SDS011;62475;52.192;5.396;2023-05-21T01:01:29;5.18;;;4.00;;
74124;SDS011;62475;52.192;5.396;2023-05-21T01:04:58;6.70;;;3.70;;
74124;SDS011;62475;52.192;5.396;2023-05-21T01:08:24;5.60;;;3.78;;
74124;SDS011;62475;52.192;5.396;2023-05-21T01:11:50;6.80;;;3.90;;
74124;SDS011;62475;52.192;5.396;2023-05-21T01:15:15;6.60;;;3.40;;
74124;SDS011;62475;52.192;5.396;2023-05-21T01:18:39;9.27;;;3.90;;
74124;SDS011;62475;52.192;5.396;2023-05-21T01:22:04;7.35;;;3.72;;
74124;SDS011;62475;52.192;5.396;2023-05-21T01:25:29;7.90;;;4.03;;
74124;SDS011;62475;52.192;5.396;2023-05-21T01:28:54;9.13;;;3.80;;
74124;SDS011;62475;52.192;5.396;2023-05-21T01:39:51;6.18;;;3.78;;
74124;SDS011;62475;52.192;5.396;2023-05-21T01:43:22;4.32;;;3.25;;
74124;SDS011;62475;52.192;5.396;2023-05-21T01:46:49;4.80;;;4.18;;
74124;SDS011;62475;52.192;5.396;2023-05-21T01:50:14;6.53;;;4.20;;
74124;SDS011;62475;52.192;5.396;2023-05-21T01:53:39;5.38;;;3.88;;
74124;SDS011;62475;52.192;5.396;2023-05-21T01:57:03;7.22;;;4.18;;
74124;SDS011;62475;52.192;5.396;2023-05-21T02:00:27;5.15;;;3.90;;
74124;SDS011;62475;52.192;5.396;2023-05-21T02:03:53;6.57;;;3.85;;
74124;SDS011;62475;52.192;5.396;2023-05-21T02:07:17;9.15;;;3.90;;
74124;SDS011;62475;52.192;5.396;2023-05-21T02:10:43;6.10;;;4.10;;
74124;SDS011;62475;52.192;5.396;2023-05-21T02:17:31;7.32;;;4.15;;
74124;SDS011;62475;52.192;5.396;2023-05-21T02:20:55;7.30;;;3.85;;
74124;SDS011;62475;52.192;5.396;2023-05-21T02:24:19;5.28;;;3.88;;
74124;SDS011;62475;52.192;5.396;2023-05-21T02:27:46;7.97;;;4.68;;
74124;SDS011;62475;52.192;5.396;2023-05-21T02:31:11;7.05;;;4.80;;
74124;SDS011;62475;52.192;5.396;2023-05-21T02:34:35;7.70;;;4.35;;
74124;SDS011;62475;52.192;5.396;2023-05-21T02:37:59;6.07;;;4.55;;
74124;SDS011;62475;52.192;5.396;2023-05-21T02:41:23;9.82;;;4.53;;
74124;SDS011;62475;52.192;5.396;2023-05-21T02:44:47;7.03;;;4.50;;
74124;SDS011;62475;52.192;5.396;2023-05-21T02:48:11;6.38;;;4.43;;
74124;SDS011;62475;52.192;5.396;2023-05-21T02:51:35;6.28;;;4.32;;
74124;SDS011;62475;52.192;5.396;2023-05-21T02:54:59;5.70;;;4.43;;
74124;SDS011;62475;52.192;5.396;2023-05-21T02:58:23;8.63;;;4.45;;
74124;SDS011;62475;52.192;5.396;2023-05-21T03:01:47;5.18;;;4.20;;
74124;SDS011;62475;52.192;5.396;2023-05-21T03:05:11;7.80;;;4.53;;
74124;SDS011;62475;52.192;5.396;2023-05-21T03:11:59;5.95;;;4.50;;
74124;SDS011;62475;52.192;5.396;2023-05-21T03:15:22;6.18;;;4.20;;
74124;SDS011;62475;52.192;5.396;2023-05-21T03:18:46;6.40;;;4.15;;
74124;SDS011;62475;52.192;5.396;2023-05-21T03:22:10;7.28;;;3.97;;
74124;SDS011;62475;52.192;5.396;2023-05-21T03:25:36;9.07;;;4.70;;
74124;SDS011;62475;52.192;5.396;2023-05-21T03:29:00;6.13;;;4.50;;
74124;SDS011;62475;52.192;5.396;2023-05-21T03:32:24;9.18;;;5.10;;
74124;SDS011;62475;52.192;5.396;2023-05-21T03:35:48;4.90;;;3.85;;
74124;SDS011;62475;52.192;5.396;2023-05-21T03:39:11;5.05;;;4.18;;
74124;SDS011;62475;52.192;5.396;2023-05-21T03:42:35;6.28;;;4.75;;
74124;SDS011;62475;52.192;5.396;2023-05-21T03:45:59;6.47;;;4.55;;
74124;SDS011;62475;52.192;5.396;2023-05-21T03:49:24;5.25;;;4.03;;
74124;SDS011;62475;52.192;5.396;2023-05-21T03:56:11;5.93;;;4.28;;
74124;SDS011;62475;52.192;5.396;2023-05-21T03:59:35;9.25;;;4.60;;
74124;SDS011;62475;52.192;5.396;2023-05-21T04:03:01;7.78;;;4.35;;
74124;SDS011;62475;52.192;5.396;2023-05-21T04:06:25;4.78;;;4.00;;
74124;SDS011;62475;52.192;5.396;2023-05-21T04:09:49;7.75;;;4.47;;
74124;SDS011;62475;52.192;5.396;2023-05-21T04:13:12;7.82;;;4.57;;
74124;SDS011;62475;52.192;5.396;2023-05-21T04:16:36;4.43;;;3.80;;
74124;SDS011;62475;52.192;5.396;2023-05-21T04:20:00;6.45;;;4.03;;
74124;SDS011;62475;52.192;5.396;2023-05-21T04:23:25;5.13;;;3.88;;
74124;SDS011;62475;52.192;5.396;2023-05-21T04:26:49;5.97;;;4.10;;
74124;SDS011;62475;52.192;5.396;2023-05-21T04:30:14;7.63;;;3.80;;
74124;SDS011;62475;52.192;5.396;2023-05-21T04:33:38;5.70;;;3.72;;
74124;SDS011;62475;52.192;5.396;2023-05-21T04:37:01;7.55;;;4.57;;
74124;SDS011;62475;52.192;5.396;2023-05-21T04:40:25;5.47;;;4.03;;
74124;SDS011;62475;52.192;5.396;2023-05-21T04:43:49;6.22;;;4.10;;
74124;SDS011;62475;52.192;5.396;2023-05-21T04:50:39;6.80;;;4.35;;
74124;SDS011;62475;52.192;5.396;2023-05-21T04:54:03;5.80;;;4.40;;
74124;SDS011;62475;52.192;5.396;2023-05-21T04:57:27;7.93;;;4.65;;
74124;SDS011;62475;52.192;5.396;2023-05-21T05:00:51;5.88;;;4.10;;
74124;SDS011;62475;52.192;5.396;2023-05-21T05:04:19;7.07;;;4.63;;
74124;SDS011;62475;52.192;5.396;2023-05-21T05:07:43;7.78;;;4.38;;
74124;SDS011;62475;52.192;5.396;2023-05-21T05:11:08;9.13;;;4.95;;
74124;SDS011;62475;52.192;5.396;2023-05-21T05:14:31;7.45;;;4.43;;
74124;SDS011;62475;52.192;5.396;2023-05-21T05:17:55;9.45;;;4.50;;
74124;SDS011;62475;52.192;5.396;2023-05-21T05:21:20;7.35;;;4.30;;
74124;SDS011;62475;52.192;5.396;2023-05-21T05:24:44;8.82;;;4.65;;
74124;SDS011;62475;52.192;5.396;2023-05-21T05:28:08;7.53;;;4.07;;
74124;SDS011;62475;52.192;5.396;2023-05-21T05:31:32;11.75;;;5.40;;
74124;SDS011;62475;52.192;5.396;2023-05-21T05:34:55;7.32;;;4.50;;
74124;SDS011;62475;52.192;5.396;2023-05-21T05:38:19;7.00;;;5.25;;
74124;SDS011;62475;52.192;5.396;2023-05-21T05:41:43;7.57;;;4.43;;
74124;SDS011;62475;52.192;5.396;2023-05-21T05:45:07;8.20;;;5.07;;
74124;SDS011;62475;52.192;5.396;2023-05-21T05:48:31;8.13;;;5.28;;
74124;SDS011;62475;52.192;5.396;2023-05-21T05:51:55;7.65;;;5.18;;
74124;SDS011;62475;52.192;5.396;2023-05-21T05:55:18;7.32;;;4.93;;
74124;SDS011;62475;52.192;5.396;2023-05-21T05:58:42;11.10;;;5.72;;
74124;SDS011;62475;52.192;5.396;2023-05-21T06:02:06;6.43;;;4.97;;
74124;SDS011;62475;52.192;5.396;2023-05-21T06:05:30;8.68;;;6.03;;
74124;SDS011;62475;52.192;5.396;2023-05-21T06:08:54;12.32;;;5.72;;
74124;SDS011;62475;52.192;5.396;2023-05-21T06:12:17;9.15;;;5.40;;
74124;SDS011;62475;52.192;5.396;2023-05-21T06:15:41;10.88;;;5.65;;
74124;SDS011;62475;52.192;5.396;2023-05-21T06:19:05;9.32;;;5.45;;
74124;SDS011;62475;52.192;5.396;2023-05-21T06:22:29;7.68;;;5.13;;
74124;SDS011;62475;52.192;5.396;2023-05-21T06:25:56;7.80;;;5.72;;
74124;SDS011;62475;52.192;5.396;2023-05-21T06:29:20;8.52;;;5.82;;
74124;SDS011;62475;52.192;5.396;2023-05-21T06:32:43;10.68;;;5.13;;
74124;SDS011;62475;52.192;5.396;2023-05-21T06:36:07;8.93;;;5.22;;
74124;SDS011;62475;52.192;5.396;2023-05-21T06:39:31;11.38;;;5.72;;
74124;SDS011;62475;52.192;5.396;2023-05-21T06:42:55;9.48;;;5.50;;
74124;SDS011;62475;52.192;5.396;2023-05-21T06:46:19;10.15;;;5.15;;
74124;SDS011;62475;52.192;5.396;2023-05-21T06:49:42;11.27;;;4.93;;
74124;SDS011;62475;52.192;5.396;2023-05-21T06:53:07;7.53;;;5.38;;
74124;SDS011;62475;52.192;5.396;2023-05-21T06:56:31;8.18;;;5.45;;
74124;SDS011;62475;52.192;5.396;2023-05-21T07:03:18;9.00;;;5.43;;
74124;SDS011;62475;52.192;5.396;2023-05-21T07:06:43;8.73;;;5.22;;
74124;SDS011;62475;52.192;5.396;2023-05-21T07:10:08;10.18;;;5.90;;
74124;SDS011;62475;52.192;5.396;2023-05-21T07:13:31;7.28;;;4.68;;
74124;SDS011;62475;52.192;5.396;2023-05-21T07:16:55;8.07;;;5.45;;
74124;SDS011;62475;52.192;5.396;2023-05-21T07:20:19;11.20;;;5.18;;
74124;SDS011;62475;52.192;5.396;2023-05-21T07:23:43;8.80;;;5.47;;
74124;SDS011;62475;52.192;5.396;2023-05-21T07:27:07;7.93;;;4.45;;
74124;SDS011;62475;52.192;5.396;2023-05-21T07:30:31;8.95;;;4.90;;
74124;SDS011;62475;52.192;5.396;2023-05-21T07:33:56;10.38;;;5.38;;
74124;SDS011;62475;52.192;5.396;2023-05-21T07:37:20;7.47;;;5.35;;
74124;SDS011;62475;52.192;5.396;2023-05-21T07:40:44;9.20;;;5.13;;
74124;SDS011;62475;52.192;5.396;2023-05-21T07:44:08;8.57;;;5.35;;
74124;SDS011;62475;52.192;5.396;2023-05-21T07:50:56;7.68;;;5.18;;
74124;SDS011;62475;52.192;5.396;2023-05-21T07:54:21;7.22;;;5.10;;
74124;SDS011;62475;52.192;5.396;2023-05-21T08:01:09;8.73;;;5.32;;
74124;SDS011;62475;52.192;5.396;2023-05-21T08:04:33;8.05;;;4.95;;
74124;SDS011;62475;52.192;5.396;2023-05-21T08:07:57;6.30;;;4.50;;
74124;SDS011;62475;52.192;5.396;2023-05-21T08:11:21;9.45;;;4.93;;
74124;SDS011;62475;52.192;5.396;2023-05-21T08:18:10;7.88;;;5.38;;
74124;SDS011;62475;52.192;5.396;2023-05-21T08:21:34;12.80;;;6.25;;
74124;SDS011;62475;52.192;5.396;2023-05-21T08:24:58;7.72;;;5.40;;
74124;SDS011;62475;52.192;5.396;2023-05-21T08:28:22;7.47;;;4.82;;
74124;SDS011;62475;52.192;5.396;2023-05-21T08:31:46;8.68;;;5.38;;
74124;SDS011;62475;52.192;5.396;2023-05-21T08:35:10;6.85;;;5.38;;
74124;SDS011;62475;52.192;5.396;2023-05-21T08:38:34;8.32;;;5.95;;
74124;SDS011;62475;52.192;5.396;2023-05-21T08:45:22;7.05;;;4.65;;
74124;SDS011;62475;52.192;5.396;2023-05-21T08:48:47;9.20;;;5.03;;
74124;SDS011;62475;52.192;5.396;2023-05-21T08:52:11;7.45;;;5.28;;
74124;SDS011;62475;52.192;5.396;2023-05-21T08:55:36;8.85;;;4.82;;
74124;SDS011;62475;52.192;5.396;2023-05-21T08:59:00;7.88;;;5.47;;
74124;SDS011;62475;52.192;5.396;2023-05-21T09:02:25;7.60;;;5.45;;
74124;SDS011;62475;52.192;5.396;2023-05-21T09:05:50;8.00;;;5.63;;
74124;SDS011;62475;52.192;5.396;2023-05-21T09:09:22;9.63;;;5.70;;
74124;SDS011;62475;52.192;5.396;2023-05-21T09:12:50;6.82;;;5.43;;
74124;SDS011;62475;52.192;5.396;2023-05-21T09:16:15;7.13;;;5.07;;
74124;SDS011;62475;52.192;5.396;2023-05-21T09:20:03;11.25;;;4.93;;
74124;SDS011;62475;52.192;5.396;2023-05-21T09:23:43;8.85;;;5.47;;
74124;SDS011;62475;52.192;5.396;2023-05-21T09:27:08;8.25;;;4.80;;
74124;SDS011;62475;52.192;5.396;2023-05-21T09:30:36;10.88;;;5.15;;
74124;SDS011;62475;52.192;5.396;2023-05-21T09:34:00;9.27;;;5.28;;
74124;SDS011;62475;52.192;5.396;2023-05-21T09:37:31;9.05;;;5.68;;
74124;SDS011;62475;52.192;5.396;2023-05-21T09:40:57;8.45;;;5.15;;
74124;SDS011;62475;52.192;5.396;2023-05-21T09:44:22;7.88;;;5.57;;
74124;SDS011;62475;52.192;5.396;2023-05-21T09:47:47;8.13;;;5.35;;
74124;SDS011;62475;52.192;5.396;2023-05-21T09:51:12;9.02;;;5.38;;
74124;SDS011;62475;52.192;5.396;2023-05-21T09:54:36;8.70;;;5.65;;
74124;SDS011;62475;52.192;5.396;2023-05-21T09:58:00;8.75;;;5.60;;
74124;SDS011;62475;52.192;5.396;2023-05-21T10:01:26;9.20;;;5.30;;
74124;SDS011;62475;52.192;5.396;2023-05-21T10:04:53;8.40;;;4.63;;
74124;SDS011;62475;52.192;5.396;2023-05-21T10:08:19;9.27;;;4.88;;
74124;SDS011;62475;52.192;5.396;2023-05-21T10:11:46;9.60;;;5.55;;
74124;SDS011;62475;52.192;5.396;2023-05-21T10:15:14;7.72;;;5.15;;
74124;SDS011;62475;52.192;5.396;2023-05-21T10:18:39;12.40;;;4.90;;
74124;SDS011;62475;52.192;5.396;2023-05-21T10:22:05;7.70;;;5.22;;
74124;SDS011;62475;52.192;5.396;2023-05-21T10:25:32;11.23;;;5.55;;
74124;SDS011;62475;52.192;5.396;2023-05-21T10:28:57;7.13;;;5.40;;
74124;SDS011;62475;52.192;5.396;2023-05-21T10:32:23;5.68;;;4.43;;
74124;SDS011;62475;52.192;5.396;2023-05-21T10:35:50;8.55;;;5.35;;
74124;SDS011;62475;52.192;5.396;2023-05-21T10:39:14;6.82;;;4.88;;
74124;SDS011;62475;52.192;5.396;2023-05-21T10:42:47;7.68;;;5.50;;
74124;SDS011;62475;52.192;5.396;2023-05-21T10:46:22;7.25;;;5.47;;
74124;SDS011;62475;52.192;5.396;2023-05-21T10:53:47;9.88;;;5.05;;
74124;SDS011;62475;52.192;5.396;2023-05-21T11:01:05;11.80;;;6.15;;
74124;SDS011;62475;52.192;5.396;2023-05-21T11:04:30;9.68;;;5.40;;
74124;SDS011;62475;52.192;5.396;2023-05-21T11:08:25;8.18;;;5.82;;
74124;SDS011;62475;52.192;5.396;2023-05-21T11:11:50;9.05;;;5.50;;
74124;SDS011;62475;52.192;5.396;2023-05-21T11:19:16;10.00;;;6.20;;
74124;SDS011;62475;52.192;5.396;2023-05-21T11:22:40;10.88;;;5.68;;
74124;SDS011;62475;52.192;5.396;2023-05-21T11:29:56;8.20;;;6.05;;
74124;SDS011;62475;52.192;5.396;2023-05-21T11:33:40;7.97;;;5.03;;
74124;SDS011;62475;52.192;5.396;2023-05-21T11:37:21;8.68;;;6.25;;
74124;SDS011;62475;52.192;5.396;2023-05-21T11:40:54;12.05;;;7.10;;
74124;SDS011;62475;52.192;5.396;2023-05-21T11:45:06;9.63;;;6.45;;
74124;SDS011;62475;52.192;5.396;2023-05-21T11:48:11;9.63;;;6.22;;
74124;SDS011;62475;52.192;5.396;2023-05-21T11:51:36;8.85;;;6.20;;
74124;SDS011;62475;52.192;5.396;2023-05-21T11:54:59;11.15;;;6.07;;
74124;SDS011;62475;52.192;5.396;2023-05-21T11:58:29;8.85;;;6.00;;
74124;SDS011;62475;52.192;5.396;2023-05-21T12:01:53;9.43;;;7.13;;
74124;SDS011;62475;52.192;5.396;2023-05-21T12:05:19;11.88;;;7.43;;
74124;SDS011;62475;52.192;5.396;2023-05-21T12:08:49;11.55;;;6.13;;
74124;SDS011;62475;52.192;5.396;2023-05-21T12:12:15;9.57;;;6.45;;
74124;SDS011;62475;52.192;5.396;2023-05-21T12:15:39;10.70;;;5.15;;
74124;SDS011;62475;52.192;5.396;2023-05-21T12:19:03;7.38;;;5.20;;
74124;SDS011;62475;52.192;5.396;2023-05-21T12:22:31;9.93;;;7.28;;
74124;SDS011;62475;52.192;5.396;2023-05-21T12:25:55;10.35;;;8.10;;
74124;SDS011;62475;52.192;5.396;2023-05-21T12:29:19;13.45;;;7.35;;
74124;SDS011;62475;52.192;5.396;2023-05-21T12:32:43;10.32;;;7.20;;
74124;SDS011;62475;52.192;5.396;2023-05-21T12:36:21;12.48;;;6.93;;
74124;SDS011;62475;52.192;5.396;2023-05-21T12:39:50;10.85;;;7.45;;
74124;SDS011;62475;52.192;5.396;2023-05-21T12:43:14;12.57;;;7.90;;
74124;SDS011;62475;52.192;5.396;2023-05-21T12:46:38;11.15;;;7.53;;
74124;SDS011;62475;52.192;5.396;2023-05-21T12:50:06;10.23;;;6.95;;
74124;SDS011;62475;52.192;5.396;2023-05-21T12:53:37;8.90;;;6.60;;
74124;SDS011;62475;52.192;5.396;2023-05-21T12:57:05;10.73;;;7.38;;
74124;SDS011;62475;52.192;5.396;2023-05-21T13:00:31;10.68;;;7.50;;
74124;SDS011;62475;52.192;5.396;2023-05-21T13:03:55;11.15;;;7.82;;
74124;SDS011;62475;52.192;5.396;2023-05-21T13:07:21;11.70;;;7.75;;
74124;SDS011;62475;52.192;5.396;2023-05-21T13:10:45;9.00;;;6.07;;
74124;SDS011;62475;52.192;5.396;2023-05-21T13:14:08;8.45;;;5.03;;
74124;SDS011;62475;52.192;5.396;2023-05-21T13:17:33;7.60;;;4.85;;
74124;SDS011;62475;52.192;5.396;2023-05-21T13:20:56;8.10;;;5.35;;
74124;SDS011;62475;52.192;5.396;2023-05-21T13:24:22;7.88;;;4.85;;
74124;SDS011;62475;52.192;5.396;2023-05-21T13:27:52;7.32;;;5.00;;
74124;SDS011;62475;52.192;5.396;2023-05-21T13:31:16;8.80;;;5.57;;
74124;SDS011;62475;52.192;5.396;2023-05-21T13:34:40;11.35;;;5.32;;
74124;SDS011;62475;52.192;5.396;2023-05-21T13:38:03;7.88;;;4.45;;
74124;SDS011;62475;52.192;5.396;2023-05-21T13:41:27;7.93;;;5.05;;
74124;SDS011;62475;52.192;5.396;2023-05-21T13:44:51;8.02;;;4.65;;
74124;SDS011;62475;52.192;5.396;2023-05-21T13:48:16;8.95;;;4.72;;
74124;SDS011;62475;52.192;5.396;2023-05-21T13:51:40;8.57;;;4.43;;
74124;SDS011;62475;52.192;5.396;2023-05-21T13:55:04;8.43;;;4.50;;
74124;SDS011;62475;52.192;5.396;2023-05-21T13:58:29;7.25;;;3.83;;
74124;SDS011;62475;52.192;5.396;2023-05-21T14:01:53;9.93;;;5.65;;
74124;SDS011;62475;52.192;5.396;2023-05-21T14:05:17;6.55;;;4.93;;
74124;SDS011;62475;52.192;5.396;2023-05-21T14:08:41;6.88;;;4.50;;
74124;SDS011;62475;52.192;5.396;2023-05-21T14:12:05;7.38;;;3.80;;
74124;SDS011;62475;52.192;5.396;2023-05-21T14:15:29;7.28;;;4.25;;
74124;SDS011;62475;52.192;5.396;2023-05-21T14:18:53;8.65;;;3.95;;
74124;SDS011;62475;52.192;5.396;2023-05-21T14:22:17;6.45;;;4.10;;
74124;SDS011;62475;52.192;5.396;2023-05-21T14:25:40;9.65;;;4.20;;
74124;SDS011;62475;52.192;5.396;2023-05-21T14:29:05;6.60;;;3.22;;
74124;SDS011;62475;52.192;5.396;2023-05-21T14:32:29;9.13;;;4.65;;
74124;SDS011;62475;52.192;5.396;2023-05-21T14:35:56;8.50;;;4.20;;
74124;SDS011;62475;52.192;5.396;2023-05-21T14:39:20;8.70;;;4.78;;
74124;SDS011;62475;52.192;5.396;2023-05-21T14:42:44;8.23;;;4.45;;
74124;SDS011;62475;52.192;5.396;2023-05-21T14:46:08;6.88;;;4.57;;
74124;SDS011;62475;52.192;5.396;2023-05-21T14:49:32;6.45;;;4.57;;
74124;SDS011;62475;52.192;5.396;2023-05-21T14:52:55;7.45;;;4.35;;
74124;SDS011;62475;52.192;5.396;2023-05-21T14:56:21;8.20;;;4.75;;
74124;SDS011;62475;52.192;5.396;2023-05-21T14:59:45;8.27;;;4.88;;
74124;SDS011;62475;52.192;5.396;2023-05-21T15:03:09;11.38;;;5.28;;
74124;SDS011;62475;52.192;5.396;2023-05-21T15:06:33;7.43;;;5.00;;
74124;SDS011;62475;52.192;5.396;2023-05-21T15:09:57;8.45;;;5.05;;
74124;SDS011;62475;52.192;5.396;2023-05-21T15:13:20;7.38;;;5.13;;
74124;SDS011;62475;52.192;5.396;2023-05-21T15:16:44;10.48;;;4.95;;
74124;SDS011;62475;52.192;5.396;2023-05-21T15:20:08;10.48;;;5.15;;
74124;SDS011;62475;52.192;5.396;2023-05-21T15:23:32;11.48;;;4.63;;
74124;SDS011;62475;52.192;5.396;2023-05-21T15:26:56;8.30;;;5.03;;
74124;SDS011;62475;52.192;5.396;2023-05-21T15:30:21;8.68;;;4.63;;
74124;SDS011;62475;52.192;5.396;2023-05-21T15:33:45;8.73;;;4.72;;
74124;SDS011;62475;52.192;5.396;2023-05-21T15:37:10;10.82;;;5.13;;
74124;SDS011;62475;52.192;5.396;2023-05-21T15:40:34;7.80;;;5.22;;
74124;SDS011;62475;52.192;5.396;2023-05-21T15:47:27;7.32;;;4.40;;
74124;SDS011;62475;52.192;5.396;2023-05-21T15:50:52;8.45;;;5.18;;
74124;SDS011;62475;52.192;5.396;2023-05-21T15:54:16;7.38;;;4.43;;
74124;SDS011;62475;52.192;5.396;2023-05-21T15:57:41;10.10;;;5.55;;
74124;SDS011;62475;52.192;5.396;2023-05-21T16:01:05;6.32;;;4.53;;
74124;SDS011;62475;52.192;5.396;2023-05-21T16:04:38;11.90;;;5.22;;
74124;SDS011;62475;52.192;5.396;2023-05-21T16:08:02;11.13;;;4.97;;
74124;SDS011;62475;52.192;5.396;2023-05-21T16:11:26;10.73;;;4.57;;
74124;SDS011;62475;52.192;5.396;2023-05-21T16:14:50;8.27;;;5.18;;
74124;SDS011;62475;52.192;5.396;2023-05-21T16:18:13;11.60;;;5.55;;
74124;SDS011;62475;52.192;5.396;2023-05-21T16:21:37;9.93;;;5.22;;
74124;SDS011;62475;52.192;5.396;2023-05-21T16:25:01;10.95;;;5.70;;
74124;SDS011;62475;52.192;5.396;2023-05-21T16:28:25;9.90;;;5.80;;
74124;SDS011;62475;52.192;5.396;2023-05-21T16:31:49;9.02;;;5.03;;
74124;SDS011;62475;52.192;5.396;2023-05-21T16:35:12;11.90;;;5.13;;
74124;SDS011;62475;52.192;5.396;2023-05-21T16:38:36;8.95;;;5.53;;
74124;SDS011;62475;52.192;5.396;2023-05-21T16:42:00;12.70;;;5.60;;
74124;SDS011;62475;52.192;5.396;2023-05-21T16:45:25;7.75;;;5.25;;
74124;SDS011;62475;52.192;5.396;2023-05-21T16:48:49;6.60;;;4.60;;
74124;SDS011;62475;52.192;5.396;2023-05-21T16:55:37;11.32;;;5.45;;
74124;SDS011;62475;52.192;5.396;2023-05-21T17:02:26;9.15;;;6.05;;
74124;SDS011;62475;52.192;5.396;2023-05-21T17:05:50;14.05;;;5.60;;
74124;SDS011;62475;52.192;5.396;2023-05-21T17:09:14;10.18;;;6.47;;
74124;SDS011;62475;52.192;5.396;2023-05-21T17:12:38;10.65;;;5.60;;
74124;SDS011;62475;52.192;5.396;2023-05-21T17:16:02;9.63;;;5.93;;
74124;SDS011;62475;52.192;5.396;2023-05-21T17:19:26;8.68;;;5.88;;
74124;SDS011;62475;52.192;5.396;2023-05-21T17:22:50;9.27;;;6.43;;
74124;SDS011;62475;52.192;5.396;2023-05-21T17:26:15;12.20;;;6.45;;
74124;SDS011;62475;52.192;5.396;2023-05-21T17:29:40;12.07;;;7.10;;
74124;SDS011;62475;52.192;5.396;2023-05-21T17:33:04;13.00;;;6.80;;
74124;SDS011;62475;52.192;5.396;2023-05-21T17:36:27;12.57;;;6.82;;
74124;SDS011;62475;52.192;5.396;2023-05-21T17:39:52;14.48;;;8.07;;
74124;SDS011;62475;52.192;5.396;2023-05-21T17:43:16;11.90;;;7.22;;
74124;SDS011;62475;52.192;5.396;2023-05-21T17:46:43;13.63;;;8.25;;
74124;SDS011;62475;52.192;5.396;2023-05-21T17:50:09;12.20;;;7.47;;
74124;SDS011;62475;52.192;5.396;2023-05-21T17:53:32;12.00;;;7.05;;
74124;SDS011;62475;52.192;5.396;2023-05-21T17:56:57;14.48;;;7.93;;
74124;SDS011;62475;52.192;5.396;2023-05-21T18:03:45;13.05;;;8.55;;
74124;SDS011;62475;52.192;5.396;2023-05-21T18:07:09;15.07;;;9.02;;
74124;SDS011;62475;52.192;5.396;2023-05-21T18:10:33;15.02;;;8.95;;
74124;SDS011;62475;52.192;5.396;2023-05-21T18:13:58;17.08;;;8.88;;
74124;SDS011;62475;52.192;5.396;2023-05-21T18:17:22;13.15;;;8.13;;
74124;SDS011;62475;52.192;5.396;2023-05-21T18:20:49;17.20;;;9.38;;
74124;SDS011;62475;52.192;5.396;2023-05-21T18:24:13;14.18;;;9.90;;
74124;SDS011;62475;52.192;5.396;2023-05-21T18:27:37;16.60;;;9.75;;
74124;SDS011;62475;52.192;5.396;2023-05-21T18:31:01;16.23;;;9.80;;
74124;SDS011;62475;52.192;5.396;2023-05-21T18:37:48;14.20;;;9.20;;
74124;SDS011;62475;52.192;5.396;2023-05-21T18:41:12;16.48;;;9.90;;
74124;SDS011;62475;52.192;5.396;2023-05-21T18:48:00;17.38;;;10.23;;
74124;SDS011;62475;52.192;5.396;2023-05-21T18:51:24;17.90;;;10.73;;
74124;SDS011;62475;52.192;5.396;2023-05-21T18:54:49;19.00;;;10.73;;
74124;SDS011;62475;52.192;5.396;2023-05-21T19:01:38;16.17;;;10.13;;
74124;SDS011;62475;52.192;5.396;2023-05-21T19:05:03;18.73;;;10.60;;
74124;SDS011;62475;52.192;5.396;2023-05-21T19:08:27;18.83;;;10.70;;
74124;SDS011;62475;52.192;5.396;2023-05-21T19:15:15;18.13;;;11.02;;
74124;SDS011;62475;52.192;5.396;2023-05-21T19:18:39;21.17;;;11.73;;
74124;SDS011;62475;52.192;5.396;2023-05-21T19:22:06;17.30;;;11.32;;
74124;SDS011;62475;52.192;5.396;2023-05-21T19:25:30;17.38;;;10.55;;
74124;SDS011;62475;52.192;5.396;2023-05-21T19:28:54;16.60;;;10.80;;
74124;SDS011;62475;52.192;5.396;2023-05-21T19:32:17;17.60;;;11.32;;
74124;SDS011;62475;52.192;5.396;2023-05-21T19:35:41;19.20;;;11.20;;
74124;SDS011;62475;52.192;5.396;2023-05-21T19:39:05;19.88;;;11.27;;
74124;SDS011;62475;52.192;5.396;2023-05-21T19:42:30;21.60;;;11.77;;
74124;SDS011;62475;52.192;5.396;2023-05-21T19:45:53;17.00;;;10.60;;
74124;SDS011;62475;52.192;5.396;2023-05-21T19:49:18;18.92;;;11.23;;
74124;SDS011;62475;52.192;5.396;2023-05-21T19:52:43;20.73;;;11.73;;
74124;SDS011;62475;52.192;5.396;2023-05-21T19:56:06;20.23;;;11.45;;
74124;SDS011;62475;52.192;5.396;2023-05-21T20:02:54;22.52;;;11.00;;
74124;SDS011;62475;52.192;5.396;2023-05-21T20:06:18;23.65;;;10.88;;
74124;SDS011;62475;52.192;5.396;2023-05-21T20:09:42;16.38;;;10.80;;
74124;SDS011;62475;52.192;5.396;2023-05-21T20:13:06;17.73;;;11.73;;
74124;SDS011;62475;52.192;5.396;2023-05-21T20:16:30;20.92;;;11.15;;
74124;SDS011;62475;52.192;5.396;2023-05-21T20:19:58;22.17;;;12.25;;
74124;SDS011;62475;52.192;5.396;2023-05-21T20:23:21;19.30;;;10.77;;
74124;SDS011;62475;52.192;5.396;2023-05-21T20:26:48;21.35;;;12.48;;
74124;SDS011;62475;52.192;5.396;2023-05-21T20:30:12;20.15;;;12.00;;
74124;SDS011;62475;52.192;5.396;2023-05-21T20:33:36;21.55;;;12.38;;
74124;SDS011;62475;52.192;5.396;2023-05-21T20:37:01;19.38;;;11.60;;
74124;SDS011;62475;52.192;5.396;2023-05-21T20:40:26;19.38;;;12.07;;
74124;SDS011;62475;52.192;5.396;2023-05-21T20:43:50;22.50;;;11.57;;
74124;SDS011;62475;52.192;5.396;2023-05-21T20:47:13;22.45;;;12.98;;
74124;SDS011;62475;52.192;5.396;2023-05-21T20:50:42;22.92;;;13.32;;
74124;SDS011;62475;52.192;5.396;2023-05-21T20:54:06;22.17;;;12.05;;
74124;SDS011;62475;52.192;5.396;2023-05-21T20:57:30;22.15;;;12.77;;
74124;SDS011;62475;52.192;5.396;2023-05-21T21:00:54;21.27;;;11.75;;
74124;SDS011;62475;52.192;5.396;2023-05-21T21:04:17;28.17;;;12.80;;
74124;SDS011;62475;52.192;5.396;2023-05-21T21:07:41;22.15;;;13.00;;
74124;SDS011;62475;52.192;5.396;2023-05-21T21:11:09;21.35;;;13.35;;
74124;SDS011;62475;52.192;5.396;2023-05-21T21:14:33;28.27;;;14.95;;
74124;SDS011;62475;52.192;5.396;2023-05-21T21:17:57;23.35;;;12.88;;
74124;SDS011;62475;52.192;5.396;2023-05-21T21:21:20;23.90;;;14.18;;
74124;SDS011;62475;52.192;5.396;2023-05-21T21:24:47;28.35;;;16.27;;
74124;SDS011;62475;52.192;5.396;2023-05-21T21:28:11;22.33;;;13.95;;
74124;SDS011;62475;52.192;5.396;2023-05-21T21:31:35;23.27;;;13.27;;
74124;SDS011;62475;52.192;5.396;2023-05-21T21:38:23;21.40;;;12.68;;
74124;SDS011;62475;52.192;5.396;2023-05-21T21:45:11;27.13;;;15.52;;
74124;SDS011;62475;52.192;5.396;2023-05-21T21:48:35;25.98;;;16.08;;
74124;SDS011;62475;52.192;5.396;2023-05-21T21:51:59;27.27;;;15.40;;
74124;SDS011;62475;52.192;5.396;2023-05-21T21:55:25;28.80;;;16.27;;